X  Chiuso Dati meteorologici dell'aviazione (METAR)     LGTS Thessaloniki Macedonia International Airport
Temperatura
25°C Temperatura
17°C Punto di rugiada
61% Umidità



Vento
3 M/S
6 MPH
10 KM/O
5 KTS



110°
ESE
Condizioni attuali

Parzialmente nuvoloso Parzialmente nuvoloso
Pressione 1009.82 (hPa) - 29.82 (inHg)
Visibilità 6 (miglio) - 9.7 (km)
Aeroporto
Codice-Aeroporto LGTS

Posizione: Thessaloniki Macedonia International Airport
Distanza: 85 (km)

Metar:
LGTS 240420Z 11005KT 9999 FEW030 25/17 Q1010 NOSIG

Ore: 24-07-2024 07:20 EEST